This is the latest recevied weather packets stored in our database for station/object EA5JUX. If no packets are shown the sender has not sent any weather packets the latest 10 day(s).
| Time | Temp. | Humidity | Pressure | Rain* | Wind** | Luminosity | Snow |
|---|---|---|---|---|---|---|---|
| 1787828501 | 29.44° C | 49% | 1011.1 hPa | 0 mm | - | - | - |
| 1787828200 | 28.89° C | 51% | 1011.4 hPa | 0 mm | - | - | - |
| 1787827901 | 28.89° C | 54% | 1011.4 hPa | 0 mm | - | - | - |
| 1787827600 | 28.89° C | 53% | 1011.5 hPa | 0 mm | - | - | - |
| 1787827301 | 28.89° C | 56% | 1011.7 hPa | 0 mm | - | - | - |
| 1787827000 | 28.33° C | 59% | 1011.7 hPa | 0 mm | - | - | - |
| 1787826721 | 28.33° C | 59% | 1011.4 hPa | 0 mm | - | - | - |
| 1787826401 | 28.33° C | 60% | 1011.7 hPa | 0 mm | - | - | - |
| 1787826101 | 27.78° C | 60% | 1011.8 hPa | 0 mm | - | - | - |
| 1787825815 | 27.78° C | 60% | 1011.8 hPa | 0 mm | - | - | - |
| 1787825521 | 27.78° C | 63% | 1011.7 hPa | 0 mm | - | - | - |
| 1787825201 | 27.22° C | 64% | 1012.3 hPa | 0 mm | - | - | - |
| 1787824901 | 26.67° C | 66% | 1012 hPa | 0 mm | - | - | - |
| 1787824601 | 26.67° C | 67% | 1012.2 hPa | 0 mm | - | - | - |
| 1787824302 | 27.22° C | 66% | 1012 hPa | 0 mm | - | - | - |
| 1787824001 | 27.22° C | 62% | 1012 hPa | 0 mm | - | - | - |
| 1787823701 | 27.78° C | 64% | 1012.2 hPa | 0 mm | - | - | - |
| 1787823401 | 27.78° C | 65% | 1012.1 hPa | 0 mm | - | - | - |
| 1787823112 | 28.89° C | 57% | 1011.9 hPa | 0 mm | - | - | - |
| 1787822814 | 28.89° C | 59% | 1011.9 hPa | 0 mm | - | - | - |
| 1787822501 | 28.33° C | 60% | 1011.7 hPa | 0 mm | - | - | - |
| 1787822219 | 28.33° C | 59% | 1011.9 hPa | 0 mm | - | - | - |
| 1787821901 | 27.78° C | 63% | 1011.9 hPa | 0 mm | - | - | - |
| 1787821601 | 27.22° C | 63% | 1011.8 hPa | 0 mm | - | - | - |
| 1787821301 | 27.78° C | 61% | 1011.6 hPa | 0 mm | - | - | - |
* Rain latest hour (hover to see other rain measurements)
** Current wind speed in m/s (hover to see current wind gust speed)